sensor_id;sensor_type;location;lat;lon;timestamp;P1;durP1;ratioP1;P2;durP2;ratioP2
80185;SDS011;69904;52.122;5.422;2023-07-16T00:01:37;3.10;;;0.82;;
80185;SDS011;69904;52.122;5.422;2023-07-16T00:04:03;5.03;;;1.20;;
80185;SDS011;69904;52.122;5.422;2023-07-16T00:06:30;3.40;;;1.20;;
80185;SDS011;69904;52.122;5.422;2023-07-16T00:08:58;5.47;;;1.10;;
80185;SDS011;69904;52.122;5.422;2023-07-16T00:11:25;5.20;;;0.88;;
80185;SDS011;69904;52.122;5.422;2023-07-16T00:13:52;4.78;;;1.08;;
80185;SDS011;69904;52.122;5.422;2023-07-16T00:16:18;3.65;;;0.95;;
80185;SDS011;69904;52.122;5.422;2023-07-16T00:18:45;3.60;;;0.95;;
80185;SDS011;69904;52.122;5.422;2023-07-16T00:21:11;5.28;;;1.20;;
80185;SDS011;69904;52.122;5.422;2023-07-16T00:23:38;4.40;;;1.70;;
80185;SDS011;69904;52.122;5.422;2023-07-16T00:26:05;2.50;;;1.00;;
80185;SDS011;69904;52.122;5.422;2023-07-16T00:28:31;5.15;;;1.23;;
80185;SDS011;69904;52.122;5.422;2023-07-16T00:30:58;3.13;;;1.05;;
80185;SDS011;69904;52.122;5.422;2023-07-16T00:33:24;11.27;;;1.63;;
80185;SDS011;69904;52.122;5.422;2023-07-16T00:35:51;6.47;;;1.38;;
80185;SDS011;69904;52.122;5.422;2023-07-16T00:38:17;5.20;;;1.33;;
80185;SDS011;69904;52.122;5.422;2023-07-16T00:40:45;4.68;;;1.10;;
80185;SDS011;69904;52.122;5.422;2023-07-16T00:43:12;3.83;;;1.45;;
80185;SDS011;69904;52.122;5.422;2023-07-16T00:45:39;4.50;;;0.98;;
80185;SDS011;69904;52.122;5.422;2023-07-16T00:48:07;4.93;;;1.63;;
80185;SDS011;69904;52.122;5.422;2023-07-16T00:50:34;4.45;;;1.00;;
80185;SDS011;69904;52.122;5.422;2023-07-16T00:53:05;5.07;;;1.10;;
80185;SDS011;69904;52.122;5.422;2023-07-16T00:55:33;3.05;;;0.93;;
80185;SDS011;69904;52.122;5.422;2023-07-16T00:58:02;6.60;;;1.23;;
80185;SDS011;69904;52.122;5.422;2023-07-16T01:00:34;4.03;;;1.10;;
80185;SDS011;69904;52.122;5.422;2023-07-16T01:03:02;1.55;;;0.77;;
80185;SDS011;69904;52.122;5.422;2023-07-16T01:05:31;3.85;;;1.23;;
80185;SDS011;69904;52.122;5.422;2023-07-16T01:08:04;3.80;;;1.23;;
80185;SDS011;69904;52.122;5.422;2023-07-16T01:10:35;6.03;;;1.25;;
80185;SDS011;69904;52.122;5.422;2023-07-16T01:13:04;3.88;;;1.20;;
80185;SDS011;69904;52.122;5.422;2023-07-16T01:15:31;4.22;;;1.48;;
80185;SDS011;69904;52.122;5.422;2023-07-16T01:17:57;3.25;;;1.50;;
80185;SDS011;69904;52.122;5.422;2023-07-16T01:20:24;4.85;;;1.15;;
80185;SDS011;69904;52.122;5.422;2023-07-16T01:22:56;7.47;;;1.33;;
80185;SDS011;69904;52.122;5.422;2023-07-16T01:30:44;4.85;;;1.52;;
80185;SDS011;69904;52.122;5.422;2023-07-16T01:33:12;4.55;;;1.38;;
80185;SDS011;69904;52.122;5.422;2023-07-16T01:35:41;2.30;;;1.45;;
80185;SDS011;69904;52.122;5.422;2023-07-16T01:38:09;4.90;;;1.50;;
80185;SDS011;69904;52.122;5.422;2023-07-16T01:40:37;5.05;;;1.38;;
80185;SDS011;69904;52.122;5.422;2023-07-16T01:43:03;5.13;;;1.65;;
80185;SDS011;69904;52.122;5.422;2023-07-16T01:45:29;4.82;;;1.50;;
80185;SDS011;69904;52.122;5.422;2023-07-16T01:50:25;3.92;;;1.00;;
80185;SDS011;69904;52.122;5.422;2023-07-16T01:52:52;3.33;;;1.17;;
80185;SDS011;69904;52.122;5.422;2023-07-16T01:55:18;10.07;;;2.08;;
80185;SDS011;69904;52.122;5.422;2023-07-16T01:57:45;6.88;;;1.42;;
80185;SDS011;69904;52.122;5.422;2023-07-16T02:00:11;7.20;;;2.13;;
80185;SDS011;69904;52.122;5.422;2023-07-16T02:02:38;4.28;;;1.55;;
80185;SDS011;69904;52.122;5.422;2023-07-16T02:05:05;5.07;;;1.50;;
80185;SDS011;69904;52.122;5.422;2023-07-16T02:07:32;3.20;;;1.75;;
80185;SDS011;69904;52.122;5.422;2023-07-16T02:09:58;7.65;;;1.67;;
80185;SDS011;69904;52.122;5.422;2023-07-16T02:12:25;2.63;;;1.40;;
80185;SDS011;69904;52.122;5.422;2023-07-16T02:14:51;11.73;;;2.10;;
80185;SDS011;69904;52.122;5.422;2023-07-16T02:17:17;4.60;;;1.95;;
80185;SDS011;69904;52.122;5.422;2023-07-16T02:19:44;6.20;;;1.73;;
80185;SDS011;69904;52.122;5.422;2023-07-16T02:22:10;8.00;;;1.83;;
80185;SDS011;69904;52.122;5.422;2023-07-16T02:24:37;7.90;;;1.77;;
80185;SDS011;69904;52.122;5.422;2023-07-16T02:27:03;9.77;;;2.17;;
80185;SDS011;69904;52.122;5.422;2023-07-16T02:29:31;5.90;;;1.42;;
80185;SDS011;69904;52.122;5.422;2023-07-16T02:31:58;7.60;;;1.85;;
80185;SDS011;69904;52.122;5.422;2023-07-16T02:34:24;6.20;;;1.70;;
80185;SDS011;69904;52.122;5.422;2023-07-16T02:36:51;3.70;;;1.58;;
80185;SDS011;69904;52.122;5.422;2023-07-16T02:39:17;6.55;;;1.92;;
80185;SDS011;69904;52.122;5.422;2023-07-16T02:41:43;7.35;;;2.30;;
80185;SDS011;69904;52.122;5.422;2023-07-16T02:44:10;6.70;;;2.05;;
80185;SDS011;69904;52.122;5.422;2023-07-16T02:46:36;5.65;;;1.63;;
80185;SDS011;69904;52.122;5.422;2023-07-16T02:51:30;6.25;;;2.10;;
80185;SDS011;69904;52.122;5.422;2023-07-16T02:53:57;9.00;;;1.63;;
80185;SDS011;69904;52.122;5.422;2023-07-16T02:56:23;4.85;;;1.35;;
80185;SDS011;69904;52.122;5.422;2023-07-16T02:58:50;5.00;;;1.35;;
80185;SDS011;69904;52.122;5.422;2023-07-16T03:01:16;5.57;;;1.92;;
80185;SDS011;69904;52.122;5.422;2023-07-16T03:03:43;6.32;;;2.00;;
80185;SDS011;69904;52.122;5.422;2023-07-16T03:06:09;8.50;;;2.00;;
80185;SDS011;69904;52.122;5.422;2023-07-16T03:08:36;3.63;;;1.42;;
80185;SDS011;69904;52.122;5.422;2023-07-16T03:11:02;2.65;;;1.35;;
80185;SDS011;69904;52.122;5.422;2023-07-16T03:13:29;4.68;;;1.70;;
80185;SDS011;69904;52.122;5.422;2023-07-16T03:15:55;6.15;;;1.48;;
80185;SDS011;69904;52.122;5.422;2023-07-16T03:18:22;3.78;;;1.38;;
80185;SDS011;69904;52.122;5.422;2023-07-16T03:20:48;4.13;;;1.92;;
80185;SDS011;69904;52.122;5.422;2023-07-16T03:23:15;5.20;;;1.38;;
80185;SDS011;69904;52.122;5.422;2023-07-16T03:25:41;3.15;;;1.55;;
80185;SDS011;69904;52.122;5.422;2023-07-16T03:28:08;8.13;;;1.70;;
80185;SDS011;69904;52.122;5.422;2023-07-16T03:30:34;5.38;;;1.50;;
80185;SDS011;69904;52.122;5.422;2023-07-16T03:33:00;3.13;;;1.65;;
80185;SDS011;69904;52.122;5.422;2023-07-16T03:35:27;6.18;;;1.63;;
80185;SDS011;69904;52.122;5.422;2023-07-16T03:37:53;5.82;;;1.60;;
80185;SDS011;69904;52.122;5.422;2023-07-16T03:40:23;5.57;;;1.38;;
80185;SDS011;69904;52.122;5.422;2023-07-16T03:42:51;6.10;;;1.83;;
80185;SDS011;69904;52.122;5.422;2023-07-16T03:45:18;11.07;;;2.20;;
80185;SDS011;69904;52.122;5.422;2023-07-16T03:47:45;4.15;;;1.48;;
80185;SDS011;69904;52.122;5.422;2023-07-16T03:50:12;4.72;;;1.15;;
80185;SDS011;69904;52.122;5.422;2023-07-16T03:52:38;5.00;;;1.25;;
80185;SDS011;69904;52.122;5.422;2023-07-16T03:55:05;4.85;;;1.77;;
80185;SDS011;69904;52.122;5.422;2023-07-16T03:57:33;7.18;;;1.88;;
80185;SDS011;69904;52.122;5.422;2023-07-16T03:59:59;6.38;;;1.60;;
80185;SDS011;69904;52.122;5.422;2023-07-16T04:02:26;7.40;;;1.67;;
80185;SDS011;69904;52.122;5.422;2023-07-16T04:04:52;4.72;;;1.48;;
80185;SDS011;69904;52.122;5.422;2023-07-16T04:07:19;8.93;;;1.95;;
80185;SDS011;69904;52.122;5.422;2023-07-16T04:09:45;4.13;;;1.35;;
80185;SDS011;69904;52.122;5.422;2023-07-16T04:12:12;4.53;;;1.95;;
80185;SDS011;69904;52.122;5.422;2023-07-16T04:14:38;4.85;;;1.40;;
80185;SDS011;69904;52.122;5.422;2023-07-16T04:17:05;4.28;;;1.90;;
80185;SDS011;69904;52.122;5.422;2023-07-16T04:19:32;7.30;;;1.80;;
80185;SDS011;69904;52.122;5.422;2023-07-16T04:21:58;5.15;;;1.77;;
80185;SDS011;69904;52.122;5.422;2023-07-16T04:24:24;3.47;;;1.30;;
80185;SDS011;69904;52.122;5.422;2023-07-16T04:26:53;7.07;;;1.98;;
80185;SDS011;69904;52.122;5.422;2023-07-16T04:31:46;6.22;;;2.45;;
80185;SDS011;69904;52.122;5.422;2023-07-16T04:34:12;4.63;;;1.35;;
80185;SDS011;69904;52.122;5.422;2023-07-16T04:36:39;6.18;;;1.92;;
80185;SDS011;69904;52.122;5.422;2023-07-16T04:39:05;8.15;;;2.38;;
80185;SDS011;69904;52.122;5.422;2023-07-16T04:41:32;6.50;;;2.42;;
80185;SDS011;69904;52.122;5.422;2023-07-16T04:43:58;5.85;;;2.17;;
80185;SDS011;69904;52.122;5.422;2023-07-16T04:46:25;4.53;;;1.52;;
80185;SDS011;69904;52.122;5.422;2023-07-16T04:48:51;5.55;;;1.73;;
80185;SDS011;69904;52.122;5.422;2023-07-16T04:51:19;5.00;;;2.03;;
80185;SDS011;69904;52.122;5.422;2023-07-16T04:53:45;9.02;;;2.35;;
80185;SDS011;69904;52.122;5.422;2023-07-16T04:56:12;4.38;;;1.70;;
80185;SDS011;69904;52.122;5.422;2023-07-16T04:58:40;4.55;;;2.03;;
80185;SDS011;69904;52.122;5.422;2023-07-16T05:03:33;7.05;;;1.98;;
80185;SDS011;69904;52.122;5.422;2023-07-16T05:06:00;4.85;;;1.83;;
80185;SDS011;69904;52.122;5.422;2023-07-16T05:08:27;4.30;;;1.92;;
80185;SDS011;69904;52.122;5.422;2023-07-16T05:10:53;6.68;;;1.98;;
80185;SDS011;69904;52.122;5.422;2023-07-16T05:15:47;5.65;;;1.83;;
80185;SDS011;69904;52.122;5.422;2023-07-16T05:18:13;9.18;;;3.17;;
80185;SDS011;69904;52.122;5.422;2023-07-16T05:20:39;7.07;;;1.85;;
80185;SDS011;69904;52.122;5.422;2023-07-16T05:23:06;11.65;;;2.50;;
80185;SDS011;69904;52.122;5.422;2023-07-16T05:25:32;5.93;;;2.10;;
80185;SDS011;69904;52.122;5.422;2023-07-16T05:27:59;7.18;;;1.88;;
80185;SDS011;69904;52.122;5.422;2023-07-16T05:30:25;4.88;;;1.65;;
80185;SDS011;69904;52.122;5.422;2023-07-16T05:32:52;3.60;;;1.80;;
80185;SDS011;69904;52.122;5.422;2023-07-16T05:35:18;4.43;;;1.90;;
80185;SDS011;69904;52.122;5.422;2023-07-16T05:37:45;8.45;;;2.65;;
80185;SDS011;69904;52.122;5.422;2023-07-16T05:40:11;6.47;;;2.20;;
80185;SDS011;69904;52.122;5.422;2023-07-16T05:42:38;4.38;;;2.15;;
80185;SDS011;69904;52.122;5.422;2023-07-16T05:45:04;10.38;;;2.38;;
80185;SDS011;69904;52.122;5.422;2023-07-16T05:47:31;3.75;;;1.55;;
80185;SDS011;69904;52.122;5.422;2023-07-16T05:49:58;7.38;;;2.20;;
80185;SDS011;69904;52.122;5.422;2023-07-16T05:52:25;7.03;;;2.53;;
80185;SDS011;69904;52.122;5.422;2023-07-16T05:54:52;6.47;;;2.17;;
80185;SDS011;69904;52.122;5.422;2023-07-16T05:57:18;4.90;;;2.00;;
80185;SDS011;69904;52.122;5.422;2023-07-16T05:59:45;9.07;;;2.72;;
80185;SDS011;69904;52.122;5.422;2023-07-16T06:02:11;3.50;;;2.17;;
80185;SDS011;69904;52.122;5.422;2023-07-16T06:04:37;8.68;;;2.33;;
80185;SDS011;69904;52.122;5.422;2023-07-16T06:07:04;5.75;;;2.15;;
80185;SDS011;69904;52.122;5.422;2023-07-16T06:09:31;4.97;;;1.75;;
80185;SDS011;69904;52.122;5.422;2023-07-16T06:11:57;5.30;;;2.13;;
80185;SDS011;69904;52.122;5.422;2023-07-16T06:14:24;4.13;;;2.22;;
80185;SDS011;69904;52.122;5.422;2023-07-16T06:16:50;10.02;;;2.63;;
80185;SDS011;69904;52.122;5.422;2023-07-16T06:21:43;9.07;;;2.42;;
80185;SDS011;69904;52.122;5.422;2023-07-16T06:24:10;8.02;;;2.28;;
80185;SDS011;69904;52.122;5.422;2023-07-16T06:26:40;8.85;;;2.60;;
80185;SDS011;69904;52.122;5.422;2023-07-16T06:29:06;4.78;;;2.60;;
80185;SDS011;69904;52.122;5.422;2023-07-16T06:31:33;5.28;;;2.47;;
80185;SDS011;69904;52.122;5.422;2023-07-16T06:34:00;5.00;;;1.92;;
80185;SDS011;69904;52.122;5.422;2023-07-16T06:36:26;3.53;;;2.10;;
80185;SDS011;69904;52.122;5.422;2023-07-16T06:38:53;7.25;;;2.78;;
80185;SDS011;69904;52.122;5.422;2023-07-16T06:41:19;4.82;;;2.05;;
80185;SDS011;69904;52.122;5.422;2023-07-16T06:43:46;4.65;;;2.20;;
80185;SDS011;69904;52.122;5.422;2023-07-16T06:46:12;5.75;;;2.50;;
80185;SDS011;69904;52.122;5.422;2023-07-16T06:48:39;7.57;;;3.38;;
80185;SDS011;69904;52.122;5.422;2023-07-16T06:51:06;4.28;;;2.17;;
80185;SDS011;69904;52.122;5.422;2023-07-16T06:53:32;3.85;;;1.77;;
80185;SDS011;69904;52.122;5.422;2023-07-16T06:58:32;5.85;;;3.00;;
80185;SDS011;69904;52.122;5.422;2023-07-16T07:00:59;5.32;;;2.50;;
80185;SDS011;69904;52.122;5.422;2023-07-16T07:03:26;6.43;;;2.45;;
80185;SDS011;69904;52.122;5.422;2023-07-16T07:05:52;8.43;;;2.10;;
80185;SDS011;69904;52.122;5.422;2023-07-16T07:08:19;6.07;;;2.58;;
80185;SDS011;69904;52.122;5.422;2023-07-16T07:10:46;8.52;;;2.72;;
80185;SDS011;69904;52.122;5.422;2023-07-16T07:13:14;6.35;;;2.80;;
80185;SDS011;69904;52.122;5.422;2023-07-16T07:15:41;8.57;;;2.83;;
80185;SDS011;69904;52.122;5.422;2023-07-16T07:18:08;7.25;;;2.35;;
80185;SDS011;69904;52.122;5.422;2023-07-16T07:20:34;4.65;;;2.70;;
80185;SDS011;69904;52.122;5.422;2023-07-16T07:23:01;6.03;;;2.05;;
80185;SDS011;69904;52.122;5.422;2023-07-16T07:25:29;7.20;;;2.42;;
80185;SDS011;69904;52.122;5.422;2023-07-16T07:27:55;6.70;;;2.47;;
80185;SDS011;69904;52.122;5.422;2023-07-16T07:30:22;8.75;;;3.22;;
80185;SDS011;69904;52.122;5.422;2023-07-16T07:32:49;4.68;;;1.63;;
80185;SDS011;69904;52.122;5.422;2023-07-16T07:37:42;5.70;;;2.30;;
80185;SDS011;69904;52.122;5.422;2023-07-16T07:40:08;5.60;;;2.05;;
80185;SDS011;69904;52.122;5.422;2023-07-16T07:42:35;7.00;;;2.80;;
80185;SDS011;69904;52.122;5.422;2023-07-16T07:45:01;10.77;;;2.90;;
80185;SDS011;69904;52.122;5.422;2023-07-16T07:47:30;8.07;;;3.28;;
80185;SDS011;69904;52.122;5.422;2023-07-16T07:49:56;4.78;;;2.65;;
80185;SDS011;69904;52.122;5.422;2023-07-16T07:52:23;5.70;;;2.35;;
80185;SDS011;69904;52.122;5.422;2023-07-16T07:54:50;6.75;;;2.85;;
80185;SDS011;69904;52.122;5.422;2023-07-16T07:57:16;6.10;;;2.40;;
80185;SDS011;69904;52.122;5.422;2023-07-16T07:59:44;5.75;;;2.65;;
80185;SDS011;69904;52.122;5.422;2023-07-16T08:02:10;6.85;;;2.78;;
80185;SDS011;69904;52.122;5.422;2023-07-16T08:04:37;7.03;;;3.03;;
80185;SDS011;69904;52.122;5.422;2023-07-16T08:07:04;7.05;;;2.78;;
80185;SDS011;69904;52.122;5.422;2023-07-16T08:11:56;6.30;;;2.67;;
80185;SDS011;69904;52.122;5.422;2023-07-16T08:14:23;4.85;;;2.38;;
80185;SDS011;69904;52.122;5.422;2023-07-16T08:16:49;4.18;;;2.28;;
80185;SDS011;69904;52.122;5.422;2023-07-16T08:21:43;7.38;;;2.83;;
80185;SDS011;69904;52.122;5.422;2023-07-16T08:24:10;6.38;;;2.60;;
80185;SDS011;69904;52.122;5.422;2023-07-16T08:26:36;8.88;;;2.72;;
80185;SDS011;69904;52.122;5.422;2023-07-16T08:29:02;6.50;;;1.92;;
80185;SDS011;69904;52.122;5.422;2023-07-16T08:31:30;5.78;;;2.03;;
80185;SDS011;69904;52.122;5.422;2023-07-16T08:33:56;6.32;;;2.67;;
80185;SDS011;69904;52.122;5.422;2023-07-16T08:36:25;5.57;;;2.63;;
80185;SDS011;69904;52.122;5.422;2023-07-16T08:41:18;11.75;;;3.17;;
80185;SDS011;69904;52.122;5.422;2023-07-16T08:46:12;8.57;;;2.80;;
80185;SDS011;69904;52.122;5.422;2023-07-16T08:48:39;6.97;;;2.30;;
80185;SDS011;69904;52.122;5.422;2023-07-16T08:51:06;8.65;;;2.83;;
80185;SDS011;69904;52.122;5.422;2023-07-16T08:53:33;8.90;;;2.80;;
80185;SDS011;69904;52.122;5.422;2023-07-16T08:56:00;4.85;;;2.33;;
80185;SDS011;69904;52.122;5.422;2023-07-16T08:58:28;8.10;;;3.38;;
80185;SDS011;69904;52.122;5.422;2023-07-16T09:00:56;6.60;;;3.03;;
80185;SDS011;69904;52.122;5.422;2023-07-16T09:03:24;7.72;;;3.10;;
80185;SDS011;69904;52.122;5.422;2023-07-16T09:05:51;6.35;;;2.67;;
80185;SDS011;69904;52.122;5.422;2023-07-16T09:10:44;6.47;;;2.58;;
80185;SDS011;69904;52.122;5.422;2023-07-16T09:13:10;9.15;;;3.50;;
80185;SDS011;69904;52.122;5.422;2023-07-16T09:15:37;6.00;;;2.25;;
80185;SDS011;69904;52.122;5.422;2023-07-16T09:18:04;5.68;;;2.15;;
80185;SDS011;69904;52.122;5.422;2023-07-16T09:20:31;3.88;;;2.17;;
80185;SDS011;69904;52.122;5.422;2023-07-16T09:22:58;5.22;;;2.58;;
80185;SDS011;69904;52.122;5.422;2023-07-16T09:25:28;8.80;;;3.03;;
80185;SDS011;69904;52.122;5.422;2023-07-16T09:27:57;5.72;;;2.00;;
80185;SDS011;69904;52.122;5.422;2023-07-16T09:30:30;8.02;;;2.92;;
80185;SDS011;69904;52.122;5.422;2023-07-16T09:32:57;12.85;;;3.13;;
80185;SDS011;69904;52.122;5.422;2023-07-16T09:37:51;7.03;;;2.70;;
80185;SDS011;69904;52.122;5.422;2023-07-16T09:40:18;8.23;;;2.80;;
80185;SDS011;69904;52.122;5.422;2023-07-16T09:42:44;5.28;;;2.53;;
80185;SDS011;69904;52.122;5.422;2023-07-16T09:45:18;5.55;;;2.78;;
80185;SDS011;69904;52.122;5.422;2023-07-16T09:47:45;7.15;;;2.33;;
80185;SDS011;69904;52.122;5.422;2023-07-16T09:50:11;4.90;;;2.38;;
80185;SDS011;69904;52.122;5.422;2023-07-16T09:52:38;8.23;;;3.08;;
80185;SDS011;69904;52.122;5.422;2023-07-16T09:55:09;7.97;;;2.90;;
80185;SDS011;69904;52.122;5.422;2023-07-16T09:57:37;7.80;;;2.50;;
80185;SDS011;69904;52.122;5.422;2023-07-16T10:00:11;7.10;;;2.65;;
80185;SDS011;69904;52.122;5.422;2023-07-16T10:02:40;5.38;;;2.25;;
80185;SDS011;69904;52.122;5.422;2023-07-16T10:05:11;5.90;;;2.22;;
80185;SDS011;69904;52.122;5.422;2023-07-16T10:07:41;6.88;;;2.65;;
80185;SDS011;69904;52.122;5.422;2023-07-16T10:10:09;7.97;;;2.72;;
80185;SDS011;69904;52.122;5.422;2023-07-16T10:12:37;6.90;;;2.50;;
80185;SDS011;69904;52.122;5.422;2023-07-16T10:15:05;5.97;;;2.65;;
80185;SDS011;69904;52.122;5.422;2023-07-16T10:17:32;6.13;;;2.38;;
80185;SDS011;69904;52.122;5.422;2023-07-16T10:20:05;6.40;;;2.83;;
80185;SDS011;69904;52.122;5.422;2023-07-16T10:22:37;5.38;;;2.63;;
80185;SDS011;69904;52.122;5.422;2023-07-16T10:25:07;4.90;;;2.63;;
80185;SDS011;69904;52.122;5.422;2023-07-16T10:27:56;4.45;;;2.35;;
80185;SDS011;69904;52.122;5.422;2023-07-16T10:30:22;5.22;;;2.38;;
80185;SDS011;69904;52.122;5.422;2023-07-16T10:32:50;5.93;;;2.80;;
80185;SDS011;69904;52.122;5.422;2023-07-16T10:35:18;5.80;;;2.67;;
80185;SDS011;69904;52.122;5.422;2023-07-16T10:37:45;6.25;;;2.22;;
80185;SDS011;69904;52.122;5.422;2023-07-16T10:40:12;6.07;;;3.03;;
80185;SDS011;69904;52.122;5.422;2023-07-16T10:42:43;5.03;;;2.67;;
80185;SDS011;69904;52.122;5.422;2023-07-16T10:45:10;10.82;;;3.10;;
80185;SDS011;69904;52.122;5.422;2023-07-16T10:47:37;6.72;;;3.28;;
80185;SDS011;69904;52.122;5.422;2023-07-16T10:50:05;9.40;;;2.67;;
80185;SDS011;69904;52.122;5.422;2023-07-16T10:52:36;7.20;;;2.63;;
80185;SDS011;69904;52.122;5.422;2023-07-16T10:55:05;5.60;;;2.83;;
80185;SDS011;69904;52.122;5.422;2023-07-16T10:57:32;3.42;;;1.88;;
80185;SDS011;69904;52.122;5.422;2023-07-16T10:59:59;7.40;;;2.92;;
80185;SDS011;69904;52.122;5.422;2023-07-16T11:02:26;6.63;;;2.53;;
80185;SDS011;69904;52.122;5.422;2023-07-16T11:04:54;4.03;;;1.77;;
80185;SDS011;69904;52.122;5.422;2023-07-16T11:09:49;7.88;;;2.33;;
80185;SDS011;69904;52.122;5.422;2023-07-16T11:12:17;4.63;;;2.60;;
80185;SDS011;69904;52.122;5.422;2023-07-16T11:14:46;5.70;;;2.45;;
80185;SDS011;69904;52.122;5.422;2023-07-16T11:17:14;4.07;;;1.98;;
80185;SDS011;69904;52.122;5.422;2023-07-16T11:19:44;4.68;;;2.45;;
80185;SDS011;69904;52.122;5.422;2023-07-16T11:22:12;7.90;;;2.72;;
80185;SDS011;69904;52.122;5.422;2023-07-16T11:27:17;5.72;;;2.15;;
80185;SDS011;69904;52.122;5.422;2023-07-16T11:29:45;4.68;;;2.60;;
80185;SDS011;69904;52.122;5.422;2023-07-16T11:34:56;3.63;;;2.10;;
80185;SDS011;69904;52.122;5.422;2023-07-16T11:37:24;6.47;;;2.30;;
80185;SDS011;69904;52.122;5.422;2023-07-16T11:40:06;5.50;;;2.13;;
80185;SDS011;69904;52.122;5.422;2023-07-16T11:42:35;6.22;;;2.55;;
80185;SDS011;69904;52.122;5.422;2023-07-16T11:45:04;5.07;;;1.88;;
80185;SDS011;69904;52.122;5.422;2023-07-16T11:47:31;3.72;;;1.60;;
80185;SDS011;69904;52.122;5.422;2023-07-16T11:49:58;6.80;;;2.30;;
80185;SDS011;69904;52.122;5.422;2023-07-16T11:52:25;3.38;;;1.67;;
80185;SDS011;69904;52.122;5.422;2023-07-16T11:54:54;3.40;;;1.50;;
80185;SDS011;69904;52.122;5.422;2023-07-16T11:57:22;4.35;;;1.70;;
80185;SDS011;69904;52.122;5.422;2023-07-16T11:59:49;3.45;;;1.45;;
80185;SDS011;69904;52.122;5.422;2023-07-16T12:04:42;2.60;;;1.00;;
80185;SDS011;69904;52.122;5.422;2023-07-16T12:09:35;2.50;;;0.77;;
80185;SDS011;69904;52.122;5.422;2023-07-16T12:12:01;3.22;;;1.10;;
80185;SDS011;69904;52.122;5.422;2023-07-16T12:14:28;3.38;;;0.90;;
80185;SDS011;69904;52.122;5.422;2023-07-16T12:16:55;1.27;;;0.65;;
80185;SDS011;69904;52.122;5.422;2023-07-16T12:19:22;2.42;;;1.05;;
80185;SDS011;69904;52.122;5.422;2023-07-16T12:24:18;1.20;;;0.80;;
80185;SDS011;69904;52.122;5.422;2023-07-16T12:26:44;5.00;;;1.17;;
80185;SDS011;69904;52.122;5.422;2023-07-16T12:29:11;3.42;;;0.85;;
80185;SDS011;69904;52.122;5.422;2023-07-16T12:31:37;4.00;;;0.85;;
80185;SDS011;69904;52.122;5.422;2023-07-16T12:36:30;2.35;;;0.73;;
80185;SDS011;69904;52.122;5.422;2023-07-16T12:41:23;3.40;;;1.00;;
80185;SDS011;69904;52.122;5.422;2023-07-16T12:43:50;3.83;;;0.80;;
80185;SDS011;69904;52.122;5.422;2023-07-16T12:46:16;3.72;;;1.17;;
80185;SDS011;69904;52.122;5.422;2023-07-16T12:48:43;3.90;;;1.00;;
80185;SDS011;69904;52.122;5.422;2023-07-16T12:51:09;1.27;;;0.80;;
80185;SDS011;69904;52.122;5.422;2023-07-16T12:53:36;5.05;;;1.00;;
80185;SDS011;69904;52.122;5.422;2023-07-16T12:58:29;2.20;;;0.70;;
80185;SDS011;69904;52.122;5.422;2023-07-16T13:03:22;2.42;;;1.13;;
80185;SDS011;69904;52.122;5.422;2023-07-16T13:05:48;5.30;;;0.90;;
80185;SDS011;69904;52.122;5.422;2023-07-16T13:10:41;2.28;;;0.55;;
80185;SDS011;69904;52.122;5.422;2023-07-16T13:13:08;3.22;;;0.80;;
80185;SDS011;69904;52.122;5.422;2023-07-16T13:18:01;3.72;;;0.88;;
80185;SDS011;69904;52.122;5.422;2023-07-16T13:20:28;4.93;;;1.13;;
80185;SDS011;69904;52.122;5.422;2023-07-16T13:22:56;1.73;;;0.70;;
80185;SDS011;69904;52.122;5.422;2023-07-16T13:25:23;4.78;;;0.80;;
80185;SDS011;69904;52.122;5.422;2023-07-16T13:27:49;3.90;;;0.65;;
80185;SDS011;69904;52.122;5.422;2023-07-16T13:30:16;2.35;;;0.68;;
80185;SDS011;69904;52.122;5.422;2023-07-16T13:32:43;2.92;;;0.70;;
80185;SDS011;69904;52.122;5.422;2023-07-16T13:35:10;3.10;;;0.52;;
80185;SDS011;69904;52.122;5.422;2023-07-16T13:37:36;2.55;;;0.60;;
80185;SDS011;69904;52.122;5.422;2023-07-16T13:40:03;2.97;;;0.63;;
80185;SDS011;69904;52.122;5.422;2023-07-16T13:42:29;3.75;;;0.70;;
80185;SDS011;69904;52.122;5.422;2023-07-16T13:47:22;1.63;;;0.70;;
80185;SDS011;69904;52.122;5.422;2023-07-16T13:49:50;1.45;;;0.60;;
80185;SDS011;69904;52.122;5.422;2023-07-16T13:52:17;3.33;;;0.95;;
80185;SDS011;69904;52.122;5.422;2023-07-16T13:54:43;5.60;;;0.90;;
80185;SDS011;69904;52.122;5.422;2023-07-16T13:57:10;1.80;;;0.77;;
80185;SDS011;69904;52.122;5.422;2023-07-16T14:02:03;1.90;;;0.55;;
80185;SDS011;69904;52.122;5.422;2023-07-16T14:04:30;1.95;;;0.60;;
80185;SDS011;69904;52.122;5.422;2023-07-16T14:06:59;5.22;;;0.70;;
80185;SDS011;69904;52.122;5.422;2023-07-16T14:09:26;1.60;;;0.40;;
80185;SDS011;69904;52.122;5.422;2023-07-16T14:11:52;2.40;;;0.80;;
80185;SDS011;69904;52.122;5.422;2023-07-16T14:16:47;3.90;;;0.82;;
80185;SDS011;69904;52.122;5.422;2023-07-16T14:19:14;2.13;;;0.73;;
80185;SDS011;69904;52.122;5.422;2023-07-16T14:21:40;3.45;;;0.80;;
80185;SDS011;69904;52.122;5.422;2023-07-16T14:24:07;3.80;;;0.60;;
80185;SDS011;69904;52.122;5.422;2023-07-16T14:26:34;4.78;;;0.95;;
80185;SDS011;69904;52.122;5.422;2023-07-16T14:29:01;4.82;;;0.88;;
80185;SDS011;69904;52.122;5.422;2023-07-16T14:33:54;3.90;;;0.85;;
80185;SDS011;69904;52.122;5.422;2023-07-16T14:38:48;2.72;;;0.88;;
80185;SDS011;69904;52.122;5.422;2023-07-16T14:41:15;3.08;;;0.60;;
80185;SDS011;69904;52.122;5.422;2023-07-16T14:46:08;1.80;;;0.50;;
80185;SDS011;69904;52.122;5.422;2023-07-16T14:48:42;7.32;;;1.00;;
80185;SDS011;69904;52.122;5.422;2023-07-16T14:51:10;3.63;;;0.80;;
80185;SDS011;69904;52.122;5.422;2023-07-16T14:53:39;1.60;;;0.60;;
80185;SDS011;69904;52.122;5.422;2023-07-16T14:56:06;3.63;;;0.93;;
80185;SDS011;69904;52.122;5.422;2023-07-16T14:58:33;3.72;;;0.85;;
80185;SDS011;69904;52.122;5.422;2023-07-16T15:01:03;2.85;;;1.00;;
80185;SDS011;69904;52.122;5.422;2023-07-16T15:03:34;2.90;;;0.80;;
80185;SDS011;69904;52.122;5.422;2023-07-16T15:06:06;3.20;;;1.25;;
80185;SDS011;69904;52.122;5.422;2023-07-16T15:08:34;2.88;;;0.70;;
80185;SDS011;69904;52.122;5.422;2023-07-16T15:11:00;2.63;;;0.80;;
80185;SDS011;69904;52.122;5.422;2023-07-16T15:13:27;1.73;;;0.57;;
80185;SDS011;69904;52.122;5.422;2023-07-16T15:15:55;2.55;;;0.80;;
80185;SDS011;69904;52.122;5.422;2023-07-16T15:18:24;3.63;;;0.68;;
80185;SDS011;69904;52.122;5.422;2023-07-16T15:20:55;2.15;;;0.68;;
80185;SDS011;69904;52.122;5.422;2023-07-16T15:23:28;4.38;;;0.70;;
80185;SDS011;69904;52.122;5.422;2023-07-16T15:26:00;2.90;;;0.93;;
80185;SDS011;69904;52.122;5.422;2023-07-16T15:28:30;2.90;;;0.68;;
80185;SDS011;69904;52.122;5.422;2023-07-16T15:31:00;3.70;;;0.88;;
80185;SDS011;69904;52.122;5.422;2023-07-16T15:33:27;1.45;;;0.65;;
80185;SDS011;69904;52.122;5.422;2023-07-16T15:35:56;3.28;;;0.82;;
80185;SDS011;69904;52.122;5.422;2023-07-16T15:38:23;3.95;;;1.17;;
80185;SDS011;69904;52.122;5.422;2023-07-16T15:40:50;2.17;;;0.50;;
80185;SDS011;69904;52.122;5.422;2023-07-16T15:43:17;2.10;;;0.70;;
80185;SDS011;69904;52.122;5.422;2023-07-16T15:45:44;3.53;;;0.70;;
80185;SDS011;69904;52.122;5.422;2023-07-16T15:48:10;1.67;;;0.50;;
80185;SDS011;69904;52.122;5.422;2023-07-16T15:50:38;2.53;;;0.60;;
80185;SDS011;69904;52.122;5.422;2023-07-16T15:53:06;2.95;;;0.88;;
80185;SDS011;69904;52.122;5.422;2023-07-16T15:55:32;3.08;;;0.88;;
80185;SDS011;69904;52.122;5.422;2023-07-16T15:58:00;3.33;;;0.77;;
80185;SDS011;69904;52.122;5.422;2023-07-16T16:00:26;3.30;;;0.70;;
80185;SDS011;69904;52.122;5.422;2023-07-16T16:02:53;3.50;;;0.88;;
80185;SDS011;69904;52.122;5.422;2023-07-16T16:05:22;8.00;;;1.88;;
80185;SDS011;69904;52.122;5.422;2023-07-16T16:10:49;2.00;;;0.77;;
80185;SDS011;69904;52.122;5.422;2023-07-16T16:13:17;4.95;;;0.80;;
80185;SDS011;69904;52.122;5.422;2023-07-16T16:15:45;2.20;;;0.60;;